This is the latest recevied weather packets stored in our database for station/object EA7AIS-10. If no packets are shown the sender has not sent any weather packets the latest 10 day(s).
| Time | Temp. | Humidity | Pressure | Rain* | Wind** | Luminosity | Snow |
|---|---|---|---|---|---|---|---|
| 1777517158 | 14.44° C | 85% | 1012.4 hPa | - | - | - | - |
| 1777516258 | 14.44° C | 87% | 1012.3 hPa | - | - | - | - |
| 1777515357 | 14.44° C | 87% | 1012.3 hPa | - | - | - | - |
| 1777513557 | 14.44° C | 86% | 1012.3 hPa | - | - | - | - |
| 1777512657 | 15° C | 87% | 1012.3 hPa | - | - | - | - |
| 1777511757 | 15° C | 87% | 1012.3 hPa | - | - | - | - |
| 1777510858 | 15° C | 87% | 1012.2 hPa | - | - | - | - |
| 1777509057 | 15° C | 85% | 1012.3 hPa | - | - | - | - |
| 1777508157 | 15.56° C | 83% | 1012.3 hPa | - | - | - | - |
| 1777507257 | 15.56° C | 82% | 1012.2 hPa | - | - | - | - |
| 1777506357 | 15.56° C | 82% | 1012.1 hPa | - | - | - | - |
| 1777505457 | 15.56° C | 82% | 1012.2 hPa | - | - | - | - |
| 1777496457 | 17.22° C | 78% | 1011.8 hPa | - | - | - | - |
| 1777493756 | 17.78° C | 78% | 1010.6 hPa | - | - | - | - |
| 1777490156 | 18.89° C | 73% | 1009.8 hPa | - | - | - | - |
| 1777480255 | 22.22° C | 63% | 1008.7 hPa | - | - | - | - |
| 1777477555 | 21.67° C | 64% | 1008.9 hPa | - | - | - | - |
| 1777471255 | 21.11° C | 65% | 1009 hPa | - | - | - | - |
| 1777468554 | 21.67° C | 61% | 1009 hPa | - | - | - | - |
| 1777465854 | 23.89° C | 59% | 1008.8 hPa | - | - | - | - |
| 1777464954 | 23.33° C | 59% | 1008.8 hPa | - | - | - | - |
| 1777461353 | 23.33° C | 60% | 1008.9 hPa | - | - | - | - |
| 1777457750 | 22.78° C | 66% | 1009.1 hPa | - | - | - | - |
| 1777456851 | 21.67° C | 68% | 1009 hPa | - | - | - | - |
| 1777455050 | 22.22° C | 69% | 1008.8 hPa | - | - | - | - |
* Rain since midnight (hover to see other rain measurements)
** Current wind speed in m/s (hover to see current wind gust speed)